createdAt,value
2022-12-15T00:02:58.462Z,23.17
2022-12-15T00:13:19.456Z,36.50
2022-12-15T00:23:40.154Z,35.08
2022-12-15T00:34:00.845Z,32.72
2022-12-15T00:44:03.152Z,32.15
2022-12-15T00:54:23.955Z,20.92
2022-12-15T01:04:44.877Z,27.95
2022-12-15T01:15:05.501Z,32.67
2022-12-15T01:25:09.775Z,27.85
2022-12-15T01:35:12.151Z,22.90
2022-12-15T01:45:29.360Z,22.42
2022-12-15T01:55:32.492Z,25.75
2022-12-15T02:05:35.730Z,24.58
2022-12-15T02:15:49.797Z,22.63
2022-12-15T02:26:10.474Z,21.45
2022-12-15T02:36:24.330Z,18.58
2022-12-15T02:46:40.900Z,24.58
2022-12-15T03:07:00.802Z,36.60
2022-12-15T03:17:07.260Z,32.25
2022-12-15T03:27:09.431Z,31.43
2022-12-15T03:37:11.673Z,24.80
2022-12-15T03:47:13.859Z,25.08
2022-12-15T03:57:16.050Z,28.02
2022-12-15T04:07:18.283Z,36.08
2022-12-15T04:17:20.674Z,41.00
2022-12-15T04:27:41.292Z,34.40
2022-12-15T04:38:01.798Z,63.50
2022-12-15T04:48:23.158Z,47.30
2022-12-15T04:58:43.900Z,35.33
2022-12-15T05:09:04.521Z,48.17
2022-12-15T05:19:25.409Z,63.70
2022-12-15T05:29:46.260Z,38.88
2022-12-15T05:39:48.451Z,32.83
2022-12-15T05:49:51.389Z,28.40
2022-12-15T05:59:53.556Z,33.50
2022-12-15T06:09:55.754Z,32.88
2022-12-15T06:19:58.103Z,23.90
2022-12-15T06:30:00.250Z,26.05
2022-12-15T06:40:02.711Z,30.45
2022-12-15T06:50:05.207Z,23.75
2022-12-15T07:00:08.129Z,13.82
2022-12-15T07:10:11.228Z,19.85
2022-12-15T07:20:13.630Z,20.05
2022-12-15T07:30:18.061Z,19.00
2022-12-15T07:40:20.598Z,19.77
2022-12-15T07:50:23.252Z,35.13
2022-12-15T08:00:25.558Z,30.80
2022-12-15T08:10:28.019Z,26.90
2022-12-15T08:20:31.315Z,39.10
2022-12-15T08:30:34.463Z,31.90
2022-12-15T08:40:36.669Z,28.90
2022-12-15T08:50:42.542Z,19.02
2022-12-15T09:00:45.482Z,23.37
2022-12-15T09:10:47.724Z,69.47
2022-12-15T09:20:55.450Z,53.22
2022-12-15T09:31:03.768Z,26.50
2022-12-15T09:41:16.108Z,24.65
2022-12-15T09:51:19.033Z,20.73
2022-12-15T10:01:36.297Z,23.63
2022-12-15T10:12:08.776Z,26.17
2022-12-15T10:22:18.910Z,29.80
2022-12-15T10:32:43.041Z,27.80
2022-12-15T10:42:51.088Z,31.00
2022-12-15T10:52:53.306Z,17.70
2022-12-15T11:02:58.224Z,23.38
2022-12-15T11:13:12.704Z,30.17
2022-12-15T11:23:40.195Z,36.85
2022-12-15T11:33:42.585Z,35.78
2022-12-15T11:44:11.411Z,22.70
2022-12-15T11:54:18.469Z,20.45
2022-12-15T12:04:25.247Z,26.20
2022-12-15T12:35:39.330Z,18.50
2022-12-15T12:45:53.941Z,22.27
2022-12-15T12:55:56.542Z,22.42
2022-12-15T13:05:58.787Z,35.47
2022-12-15T13:16:25.684Z,33.33
2022-12-15T13:26:31.491Z,23.83
2022-12-15T13:36:36.761Z,23.33
2022-12-15T13:46:39.585Z,25.27
2022-12-15T13:56:48.994Z,21.08
2022-12-15T14:07:00.499Z,21.38
2022-12-15T14:17:07.581Z,18.48
2022-12-15T14:27:09.964Z,21.02
2022-12-15T14:37:17.949Z,24.88
2022-12-15T14:47:27.134Z,30.50
2022-12-15T14:57:41.485Z,32.78
2022-12-15T15:03:09.975Z,23.35
2022-12-15T15:07:45.697Z,31.58
2022-12-15T15:17:47.865Z,36.22
2022-12-15T15:27:50.105Z,36.55
2022-12-15T15:37:56.010Z,36.47
2022-12-15T15:47:58.223Z,21.83
2022-12-15T15:58:00.378Z,19.08
2022-12-15T16:08:04.083Z,17.33
2022-12-15T16:18:06.295Z,39.03
2022-12-15T16:28:17.440Z,32.38
2022-12-15T16:38:26.956Z,18.65
2022-12-15T16:48:29.802Z,27.65
2022-12-15T16:58:35.124Z,44.35
2022-12-15T17:08:43.796Z,39.22
2022-12-15T17:18:46.329Z,24.15
2022-12-15T17:28:49.076Z,20.27
2022-12-15T17:38:59.609Z,30.75
2022-12-15T17:49:01.807Z,24.00
2022-12-15T17:59:06.471Z,32.42
2022-12-15T18:09:15.535Z,24.75
2022-12-15T18:19:17.714Z,35.10
2022-12-15T18:29:20.043Z,25.13
2022-12-15T18:39:24.171Z,25.35
2022-12-15T18:49:26.432Z,35.35
2022-12-15T18:59:28.651Z,37.50
2022-12-15T19:09:30.851Z,54.28
2022-12-15T19:19:51.431Z,50.30
2022-12-15T19:29:55.009Z,68.93
2022-12-15T19:40:01.147Z,263.13
2022-12-15T19:50:03.538Z,274.80
2022-12-15T20:00:18.012Z,460.90
2022-12-15T20:10:31.756Z,293.08
2022-12-15T20:20:35.275Z,282.95
2022-12-15T20:30:37.469Z,294.13
2022-12-15T20:40:39.635Z,278.08
2022-12-15T20:50:48.233Z,282.40
2022-12-15T21:00:51.714Z,294.75
2022-12-15T21:10:59.966Z,268.67
2022-12-15T21:21:02.360Z,279.45
2022-12-15T21:40:17.931Z,313.27
2022-12-15T21:50:20.371Z,277.98
2022-12-15T22:00:23.649Z,278.65
2022-12-15T22:10:26.031Z,271.45
2022-12-15T22:20:28.207Z,196.70
2022-12-15T22:30:30.410Z,194.80
2022-12-15T22:40:32.638Z,245.48
2022-12-15T22:50:34.818Z,256.55
2022-12-15T23:00:37.869Z,221.38
2022-12-15T23:10:58.906Z,201.45
2022-12-15T23:21:01.748Z,217.95
2022-12-15T23:31:04.872Z,254.85
2022-12-15T23:41:07.296Z,282.48
2022-12-15T23:51:12.173Z,256.70
